Time;durP1;ratioP1;P1;durP2;ratioP2;P2;SDS_P1;SDS_P2;PMS_P1;PMS_P2;Temp;Humidity;BMP_temperature;BMP_pressure;BME280_temperature;BME280_humidity;BME280_pressure;Samples;Min_cycle;Max_cycle;Signal;HPM_P1;HPM_P2
2023/05/02 00:00:14;;;;;;;27.77;10.60;;;15.10;82.80;;;;;;5114362;28;20016;-73
2023/05/02 00:02:40;;;;;;;29.73;11.35;;;15.10;82.80;;;;;;5112996;28;20021;-74
2023/05/02 00:05:06;;;;;;;24.70;11.35;;;15.10;82.80;;;;;;5114243;28;20096;-73
2023/05/02 00:07:32;;;;;;;24.70;10.90;;;15.10;82.80;;;;;;5114236;28;20040;-73
2023/05/02 00:10:01;;;;;;;25.77;11.52;;;15.10;82.80;;;;;;5114235;28;20028;-73
2023/05/02 00:12:26;;;;;;;27.45;11.30;;;15.00;82.70;;;;;;5114179;28;20047;-73
2023/05/02 00:14:52;;;;;;;24.20;10.48;;;15.10;82.80;;;;;;5114012;28;20059;-73
2023/05/02 00:17:19;;;;;;;29.90;11.25;;;15.10;82.90;;;;;;5113237;28;20092;-73
2023/05/02 00:19:45;;;;;;;26.42;11.80;;;15.10;83.00;;;;;;5114013;28;20027;-73
2023/05/02 00:22:11;;;;;;;25.20;10.93;;;15.10;83.00;;;;;;5113815;28;20048;-73
2023/05/02 00:24:37;;;;;;;24.70;10.93;;;15.00;83.00;;;;;;5113939;28;20084;-73
2023/05/02 00:27:03;;;;;;;24.98;10.25;;;15.00;83.10;;;;;;5112945;28;20135;-74
2023/05/02 00:29:29;;;;;;;25.33;11.13;;;14.90;83.10;;;;;;5096183;28;20027;-73
2023/05/02 00:31:55;;;;;;;26.90;11.07;;;14.90;83.20;;;;;;5112868;28;20020;-73
2023/05/02 00:34:21;;;;;;;26.23;11.10;;;14.90;83.20;;;;;;5113660;28;20484;-73
2023/05/02 00:36:47;;;;;;;23.55;10.80;;;14.90;83.20;;;;;;5113767;28;20058;-73
2023/05/02 00:39:13;;;;;;;23.40;10.43;;;14.90;83.30;;;;;;5113672;28;20024;-73
2023/05/02 00:41:38;;;;;;;26.52;10.90;;;14.90;83.10;;;;;;5112597;28;20039;-73
2023/05/02 00:44:04;;;;;;;24.65;10.75;;;14.80;83.20;;;;;;5113777;28;20028;-73
2023/05/02 00:46:30;;;;;;;23.30;10.32;;;14.80;83.30;;;;;;5113616;28;20031;-73
2023/05/02 00:48:55;;;;;;;27.02;10.82;;;14.80;83.30;;;;;;5113594;28;20028;-73
2023/05/02 00:51:21;;;;;;;26.52;10.90;;;14.90;83.40;;;;;;5095671;28;20488;-73
2023/05/02 00:53:47;;;;;;;22.73;10.30;;;14.80;84.20;;;;;;5095828;28;20020;-73
2023/05/02 00:56:13;;;;;;;24.00;11.00;;;14.80;83.40;;;;;;5113410;28;20087;-73
2023/05/02 00:58:40;;;;;;;19.42;9.63;;;14.80;83.50;;;;;;5113429;28;20029;-73
2023/05/02 01:01:21;;;;;;;21.17;9.55;;;14.80;83.30;;;;;;5113476;28;20022;-73
2023/05/02 01:04:13;;;;;;;23.52;10.05;;;14.80;83.30;;;;;;5113631;28;20027;-73
2023/05/02 01:06:41;;;;;;;23.42;10.20;;;14.80;82.80;;;;;;5113441;28;20051;-73
2023/05/02 01:09:38;;;;;;;22.30;10.23;;;14.70;82.90;;;;;;5112349;28;20031;-73
2023/05/02 01:12:08;;;;;;;20.85;10.18;;;14.70;82.70;;;;;;5113525;28;20024;-73
2023/05/02 01:14:48;;;;;;;22.55;9.73;;;14.70;82.80;;;;;;5113814;28;20028;-73
2023/05/02 01:17:16;;;;;;;22.80;10.32;;;14.70;82.90;;;;;;5117585;28;20012;-73
2023/05/02 01:19:49;;;;;;;22.00;10.45;;;14.70;82.90;;;;;;5117449;28;20012;-73
2023/05/02 01:22:15;;;;;;;23.65;10.45;;;14.70;83.10;;;;;;5117328;28;20040;-73
2023/05/02 01:24:59;;;;;;;22.17;10.25;;;14.60;83.50;;;;;;5117403;28;20032;-73
2023/05/02 01:28:00;;;;;;;23.05;9.93;;;14.60;83.50;;;;;;5116272;28;20028;-73
2023/05/02 01:30:28;;;;;;;23.35;9.75;;;14.50;83.80;;;;;;5045036;28;20049;-74
2023/05/02 01:32:56;;;;;;;21.88;9.63;;;14.50;83.70;;;;;;5117297;28;20039;-73
2023/05/02 01:35:23;;;;;;;18.17;9.15;;;14.50;83.80;;;;;;5117053;28;20020;-73
2023/05/02 01:37:50;;;;;;;21.90;9.43;;;14.50;83.70;;;;;;5117256;28;20031;-73
2023/05/02 01:40:21;;;;;;;21.17;9.50;;;14.50;83.60;;;;;;5117105;28;20043;-73
2023/05/02 01:42:49;;;;;;;20.73;9.52;;;14.50;83.60;;;;;;5116065;28;20032;-73
2023/05/02 01:45:17;;;;;;;19.63;9.60;;;14.50;83.60;;;;;;5116115;28;20119;-73
2023/05/02 01:47:44;;;;;;;19.23;9.65;;;14.40;83.40;;;;;;5116921;28;20028;-73
2023/05/02 01:50:19;;;;;;;23.75;9.23;;;14.40;83.50;;;;;;5116949;28;20020;-73
2023/05/02 01:52:48;;;;;;;20.20;9.80;;;14.50;83.60;;;;;;5116899;28;20035;-73
2023/05/02 01:55:15;;;;;;;20.92;9.88;;;14.40;83.50;;;;;;5116859;28;20020;-73
2023/05/02 01:57:43;;;;;;;18.23;9.10;;;14.40;83.60;;;;;;5116774;28;20028;-73
2023/05/02 02:00:10;;;;;;;19.95;9.10;;;14.40;83.70;;;;;;5115829;28;20020;-73
2023/05/02 02:02:38;;;;;;;21.27;9.32;;;14.40;83.70;;;;;;5116613;28;20024;-73
2023/05/02 02:05:06;;;;;;;21.17;9.35;;;14.30;83.90;;;;;;5116648;28;20024;-73
2023/05/02 02:07:32;;;;;;;18.55;8.65;;;14.40;83.90;;;;;;5115549;28;20040;-73
2023/05/02 02:09:58;;;;;;;18.88;8.75;;;14.30;83.90;;;;;;5116539;28;20034;-73
2023/05/02 02:12:27;;;;;;;19.15;9.07;;;14.30;84.10;;;;;;5116487;28;20035;-74
2023/05/02 02:15:01;;;;;;;22.27;9.57;;;14.30;84.00;;;;;;5116377;28;20027;-73
2023/05/02 02:17:36;;;;;;;18.92;8.68;;;14.30;84.30;;;;;;5116401;28;20031;-73
2023/05/02 02:20:06;;;;;;;19.20;8.82;;;14.30;84.40;;;;;;5116469;28;20020;-73
2023/05/02 02:22:36;;;;;;;18.60;9.00;;;14.30;84.60;;;;;;5116189;28;20108;-73
2023/05/02 02:25:05;;;;;;;20.55;9.05;;;14.20;84.50;;;;;;5116351;28;20028;-73
2023/05/02 02:27:31;;;;;;;19.40;9.38;;;14.20;84.60;;;;;;5116036;28;20046;-73
2023/05/02 02:29:56;;;;;;;19.05;9.00;;;14.10;84.90;;;;;;5116166;28;20050;-73
2023/05/02 02:32:23;;;;;;;21.98;9.48;;;14.10;85.10;;;;;;5116088;28;20087;-73
2023/05/02 02:34:49;;;;;;;19.48;9.65;;;14.10;85.20;;;;;;5115946;28;20059;-73
2023/05/02 02:37:21;;;;;;;24.77;10.18;;;14.10;85.60;;;;;;5115994;28;20039;-73
2023/05/02 02:40:30;;;;;;;23.33;10.60;;;14.10;85.50;;;;;;5116028;28;20020;-73
2023/05/02 02:43:32;;;;;;;18.55;8.95;;;14.10;86.70;;;;;;5115927;28;20485;-73
2023/05/02 02:46:19;;;;;;;20.02;9.50;;;14.00;86.90;;;;;;5116035;28;20016;-73
2023/05/02 02:49:09;;;;;;;20.17;8.70;;;14.00;86.10;;;;;;5114764;28;20118;-74
2023/05/02 02:51:44;;;;;;;21.50;9.55;;;14.00;86.50;;;;;;5115713;28;20096;-73
2023/05/02 02:54:10;;;;;;;20.20;8.30;;;14.00;86.80;;;;;;5115828;28;20043;-73
2023/05/02 02:56:40;;;;;;;16.83;8.77;;;14.00;87.00;;;;;;5115614;28;20031;-73
2023/05/02 02:59:22;;;;;;;18.75;9.00;;;14.00;87.00;;;;;;5115633;28;20020;-73
2023/05/02 03:02:11;;;;;;;18.05;8.57;;;14.00;87.00;;;;;;5115758;28;20496;-73
2023/05/02 03:04:40;;;;;;;16.58;7.90;;;14.10;87.10;;;;;;5115507;28;20495;-73
2023/05/02 03:07:06;;;;;;;17.27;8.75;;;14.10;87.20;;;;;;5114406;28;20024;-73
2023/05/02 03:09:46;;;;;;;16.02;7.85;;;14.10;87.40;;;;;;5115367;28;20032;-73
2023/05/02 03:12:13;;;;;;;19.90;7.88;;;14.10;87.50;;;;;;5115385;28;20028;-73
2023/05/02 03:14:39;;;;;;;19.40;8.55;;;14.10;88.00;;;;;;5115207;28;20051;-73
2023/05/02 03:17:07;;;;;;;13.15;6.00;;;14.00;88.10;;;;;;5115243;28;20081;-73
2023/05/02 03:19:33;;;;;;;9.77;5.38;;;14.00;88.60;;;;;;5115182;28;20020;-73
2023/05/02 03:21:59;;;;;;;8.57;4.30;;;14.00;88.90;;;;;;5114994;28;20092;-73
2023/05/02 03:24:26;;;;;;;9.20;4.35;;;13.90;89.80;;;;;;5115104;28;20031;-73
2023/05/02 03:27:00;;;;;;;6.82;3.42;;;13.90;89.60;;;;;;5114165;28;20040;-73
2023/05/02 03:29:27;;;;;;;5.90;3.28;;;13.80;89.60;;;;;;5114143;28;20027;-73
2023/05/02 03:31:53;;;;;;;4.88;2.88;;;13.80;90.00;;;;;;5114939;28;20020;-73
2023/05/02 03:34:20;;;;;;;7.10;2.88;;;13.70;90.00;;;;;;5113831;28;20032;-73
2023/05/02 03:36:46;;;;;;;9.05;2.88;;;13.70;89.90;;;;;;5113878;28;20024;-73
2023/05/02 03:39:11;;;;;;;6.00;2.95;;;13.70;89.90;;;;;;5114244;28;20042;-73
2023/05/02 03:41:37;;;;;;;5.35;2.58;;;13.80;89.90;;;;;;5113737;28;20032;-73
2023/05/02 03:44:03;;;;;;;6.90;2.65;;;13.80;89.80;;;;;;5114692;28;20020;-73
2023/05/02 03:46:29;;;;;;;4.43;2.60;;;13.80;89.90;;;;;;5114690;28;20362;-73
2023/05/02 03:48:57;;;;;;;7.97;2.78;;;13.80;89.70;;;;;;5114647;28;20024;-73
2023/05/02 03:51:22;;;;;;;9.07;3.30;;;13.80;89.60;;;;;;5114561;28;20505;-73
2023/05/02 03:53:48;;;;;;;7.60;2.80;;;13.80;89.40;;;;;;5114507;28;20028;-73
2023/05/02 03:56:18;;;;;;;7.10;2.78;;;13.80;89.50;;;;;;5114405;28;20043;-73
2023/05/02 03:58:44;;;;;;;6.10;2.70;;;13.70;89.20;;;;;;5113497;28;20083;-73
2023/05/02 04:01:16;;;;;;;6.07;2.85;;;13.70;89.10;;;;;;5113484;28;20027;-73
2023/05/02 04:03:42;;;;;;;4.50;2.38;;;13.70;88.90;;;;;;5113393;28;20047;-73
2023/05/02 04:06:08;;;;;;;7.50;2.90;;;13.60;88.70;;;;;;5114299;28;20073;-73
2023/05/02 04:08:34;;;;;;;6.70;2.67;;;13.70;88.60;;;;;;5114354;28;20034;-73
2023/05/02 04:10:59;;;;;;;6.57;2.20;;;13.60;88.60;;;;;;5114163;28;20084;-73
2023/05/02 04:13:25;;;;;;;5.80;2.40;;;13.60;88.10;;;;;;5096188;28;20024;-73
2023/05/02 04:15:50;;;;;;;5.60;2.03;;;13.60;87.70;;;;;;5114019;28;20024;-73
2023/05/02 04:18:16;;;;;;;5.65;2.40;;;13.60;87.50;;;;;;5114078;28;20084;-73
2023/05/02 04:20:44;;;;;;;4.47;2.20;;;13.60;87.30;;;;;;5112933;28;20512;-73
2023/05/02 04:23:10;;;;;;;5.43;1.98;;;13.60;87.00;;;;;;5112963;28;20025;-74
2023/05/02 04:25:36;;;;;;;4.85;1.90;;;13.50;86.80;;;;;;5113871;28;20043;-74
2023/05/02 04:28:02;;;;;;;3.80;1.88;;;13.50;86.30;;;;;;5113906;28;20020;-73
2023/05/02 04:30:28;;;;;;;2.67;1.33;;;13.40;86.90;;;;;;5112935;28;20024;-73
2023/05/02 04:32:53;;;;;;;4.07;1.42;;;13.50;85.90;;;;;;5096284;28;20053;-73
2023/05/02 04:35:19;;;;;;;4.85;1.98;;;13.50;85.80;;;;;;5112752;28;20040;-73
2023/05/02 04:37:45;;;;;;;2.53;1.40;;;13.50;85.60;;;;;;5113791;28;20024;-73
2023/05/02 04:40:12;;;;;;;6.88;1.55;;;13.50;85.20;;;;;;5112678;28;20028;-73
2023/05/02 04:42:37;;;;;;;4.80;1.60;;;13.40;84.80;;;;;;5112632;28;20035;-73
2023/05/02 04:45:03;;;;;;;4.45;1.50;;;13.40;84.50;;;;;;5112560;28;20024;-72
2023/05/02 04:47:29;;;;;;;4.38;1.35;;;13.40;84.40;;;;;;5113756;28;20104;-72
2023/05/02 04:49:55;;;;;;;4.78;1.50;;;13.40;83.90;;;;;;5111731;28;20028;-72
2023/05/02 04:52:20;;;;;;;5.82;1.70;;;13.40;84.00;;;;;;5113680;28;20024;-73
2023/05/02 04:54:46;;;;;;;6.07;1.75;;;13.40;84.00;;;;;;5112429;28;20032;-73
2023/05/02 04:57:11;;;;;;;3.42;1.48;;;13.40;83.70;;;;;;5113474;28;20035;-73
2023/05/02 04:59:37;;;;;;;5.65;1.60;;;13.30;83.70;;;;;;5112452;28;20028;-73
2023/05/02 05:02:03;;;;;;;6.22;1.80;;;13.40;83.80;;;;;;5113430;28;20027;-73
2023/05/02 05:04:29;;;;;;;4.65;1.50;;;13.40;83.60;;;;;;5113420;28;20028;-73
2023/05/02 05:06:55;;;;;;;2.60;1.42;;;13.40;83.60;;;;;;5113338;28;20462;-73
2023/05/02 05:09:21;;;;;;;5.07;1.63;;;13.40;83.30;;;;;;5113543;28;20024;-73
2023/05/02 05:11:46;;;;;;;4.03;1.42;;;13.40;83.20;;;;;;5112289;28;20495;-72
2023/05/02 05:14:12;;;;;;;2.47;1.50;;;13.40;83.30;;;;;;5113185;28;20029;-73
2023/05/02 05:16:38;;;;;;;3.70;1.35;;;13.30;83.20;;;;;;5113166;28;20025;-73
2023/05/02 05:19:04;;;;;;;5.88;1.80;;;13.30;83.50;;;;;;5113305;28;20532;-73
2023/05/02 05:21:29;;;;;;;5.95;1.40;;;13.30;83.60;;;;;;5113007;28;20044;-73
2023/05/02 05:23:55;;;;;;;7.57;1.70;;;13.30;83.80;;;;;;5112269;28;20016;-73
2023/05/02 05:26:22;;;;;;;3.22;1.40;;;13.30;83.70;;;;;;5095292;28;20400;-72
2023/05/02 05:28:49;;;;;;;4.68;1.40;;;13.30;83.70;;;;;;5113233;28;20028;-73
2023/05/02 05:31:16;;;;;;;3.95;1.60;;;13.30;83.70;;;;;;5095298;28;20046;-73
2023/05/02 05:33:42;;;;;;;4.25;1.50;;;13.40;84.00;;;;;;5113131;28;20028;-73
2023/05/02 05:36:09;;;;;;;4.20;1.60;;;13.40;83.70;;;;;;5113129;28;20084;-73
2023/05/02 05:38:35;;;;;;;4.65;1.67;;;13.30;83.80;;;;;;5095222;28;20021;-73
2023/05/02 05:41:01;;;;;;;3.00;1.50;;;13.30;83.80;;;;;;5113035;28;20020;-73
2023/05/02 05:43:27;;;;;;;6.30;1.60;;;13.30;83.60;;;;;;5113075;28;20026;-73
2023/05/02 05:45:54;;;;;;;5.35;1.90;;;13.30;83.70;;;;;;5112956;28;20028;-73
2023/05/02 05:48:20;;;;;;;5.22;1.65;;;13.30;83.60;;;;;;5095319;28;20032;-73
2023/05/02 05:50:45;;;;;;;2.63;1.30;;;13.30;83.40;;;;;;5112949;28;20046;-73
2023/05/02 05:53:12;;;;;;;6.32;1.42;;;13.30;83.60;;;;;;5112937;28;20078;-73
2023/05/02 05:55:38;;;;;;;6.57;1.95;;;13.30;83.70;;;;;;5111781;28;20110;-73
2023/05/02 05:58:04;;;;;;;4.70;2.00;;;13.40;83.70;;;;;;5095218;28;20435;-73
2023/05/02 06:00:31;;;;;;;4.35;1.83;;;13.40;83.60;;;;;;5113189;28;20020;-73
2023/05/02 06:02:56;;;;;;;3.53;1.75;;;13.40;83.60;;;;;;5115782;28;20104;-73
2023/05/02 06:05:22;;;;;;;4.13;1.48;;;13.40;83.20;;;;;;5115613;28;20024;-73
2023/05/02 06:07:47;;;;;;;3.50;1.52;;;13.40;83.10;;;;;;5116748;28;20457;-73
2023/05/02 06:10:13;;;;;;;3.88;1.30;;;13.40;83.00;;;;;;5116459;28;20036;-73
2023/05/02 06:12:39;;;;;;;3.88;1.65;;;13.40;83.10;;;;;;5098715;28;20028;-73
2023/05/02 06:15:05;;;;;;;3.88;1.67;;;13.40;82.90;;;;;;5116312;28;20073;-73
2023/05/02 06:17:30;;;;;;;7.30;1.98;;;13.40;82.80;;;;;;5115503;28;20021;-73
2023/05/02 06:19:56;;;;;;;4.20;1.33;;;13.30;82.70;;;;;;5115361;28;20024;-73
2023/05/02 06:22:21;;;;;;;4.82;1.38;;;13.30;82.60;;;;;;5116159;28;20051;-73
2023/05/02 06:24:47;;;;;;;10.95;1.65;;;13.40;82.60;;;;;;5116215;28;20036;-73
2023/05/02 06:27:13;;;;;;;4.70;1.38;;;13.40;82.70;;;;;;5116212;28;20039;-73
2023/05/02 06:29:38;;;;;;;3.60;1.42;;;13.40;82.70;;;;;;5116137;28;20028;-73
2023/05/02 06:32:05;;;;;;;1.90;0.95;;;13.30;82.60;;;;;;5115174;28;20024;-73
2023/05/02 06:34:33;;;;;;;4.40;1.52;;;13.30;81.90;;;;;;5115901;28;20111;-73
2023/05/02 06:36:59;;;;;;;8.27;2.20;;;13.20;81.10;;;;;;5115151;28;20032;-74
2023/05/02 06:39:25;;;;;;;4.90;1.60;;;13.20;80.20;;;;;;5116086;28;20032;-73
2023/05/02 06:41:50;;;;;;;5.63;1.38;;;13.20;79.40;;;;;;5116061;28;20047;-73
2023/05/02 06:44:16;;;;;;;3.67;1.15;;;13.10;78.10;;;;;;5115760;28;20032;-73
2023/05/02 06:46:42;;;;;;;2.90;1.30;;;13.10;77.90;;;;;;5115696;28;20031;-73
2023/05/02 06:49:08;;;;;;;4.65;1.50;;;13.10;77.80;;;;;;5115787;28;20032;-73
2023/05/02 06:51:33;;;;;;;3.35;1.08;;;13.10;77.50;;;;;;5115686;28;20032;-73
2023/05/02 06:53:59;;;;;;;4.35;1.40;;;13.10;77.10;;;;;;5115699;28;20103;-73
2023/05/02 06:56:25;;;;;;;3.30;1.45;;;13.10;76.80;;;;;;5114482;28;20036;-73
2023/05/02 06:58:51;;;;;;;3.50;1.20;;;13.10;76.80;;;;;;5114490;28;20021;-73
2023/05/02 07:01:17;;;;;;;6.43;1.40;;;13.10;76.70;;;;;;5115676;28;20024;-73
2023/05/02 07:03:42;;;;;;;4.50;1.35;;;13.10;76.30;;;;;;5114594;28;20054;-73
2023/05/02 07:06:08;;;;;;;6.93;1.55;;;13.10;75.90;;;;;;5115375;28;20028;-73
2023/05/02 07:08:34;;;;;;;6.50;1.52;;;13.10;76.00;;;;;;5115392;28;20028;-73
2023/05/02 07:11:01;;;;;;;6.38;1.60;;;13.10;76.20;;;;;;5115346;28;20024;-73
2023/05/02 07:13:26;;;;;;;4.18;1.60;;;13.20;76.10;;;;;;5114355;28;20028;-73
2023/05/02 07:15:52;;;;;;;4.85;1.38;;;13.20;76.40;;;;;;5114280;28;20055;-74
2023/05/02 07:18:18;;;;;;;4.32;1.60;;;13.20;76.20;;;;;;5115246;28;20072;-73
2023/05/02 07:20:44;;;;;;;8.00;2.00;;;13.30;76.30;;;;;;5114826;28;20051;-73
2023/05/02 07:23:09;;;;;;;3.38;1.63;;;13.30;76.60;;;;;;5115151;28;20028;-73
2023/05/02 07:25:36;;;;;;;3.70;1.67;;;13.30;76.70;;;;;;5114147;28;20035;-73
2023/05/02 07:28:01;;;;;;;4.15;1.55;;;13.40;76.80;;;;;;5114038;28;20035;-73
2023/05/02 07:30:27;;;;;;;6.97;1.83;;;13.50;76.90;;;;;;5097323;28;20028;-73
2023/05/02 07:32:52;;;;;;;4.50;1.70;;;13.40;75.80;;;;;;5114043;28;20036;-73
2023/05/02 07:35:18;;;;;;;7.22;2.10;;;13.40;75.80;;;;;;5096828;28;20036;-73
2023/05/02 07:37:44;;;;;;;4.47;1.80;;;13.50;75.80;;;;;;5113977;28;20032;-73
2023/05/02 07:40:09;;;;;;;6.10;1.80;;;13.40;75.70;;;;;;5113932;28;20047;-73
2023/05/02 07:42:35;;;;;;;6.43;1.60;;;13.40;75.80;;;;;;5113906;28;20055;-73
2023/05/02 07:45:01;;;;;;;7.70;1.80;;;13.40;74.70;;;;;;5113565;28;20031;-73
2023/05/02 07:47:28;;;;;;;5.55;1.48;;;13.40;74.00;;;;;;5114655;28;20083;-73
2023/05/02 07:49:54;;;;;;;5.68;1.85;;;13.40;73.80;;;;;;5114587;28;20034;-73
2023/05/02 07:52:20;;;;;;;6.15;1.60;;;13.40;73.90;;;;;;5114576;28;20024;-73
2023/05/02 07:54:48;;;;;;;6.15;2.13;;;13.40;74.50;;;;;;5114353;28;20106;-73
2023/05/02 07:57:14;;;;;;;5.28;1.98;;;13.50;74.20;;;;;;5114463;28;20385;-73
2023/05/02 07:59:39;;;;;;;5.65;1.85;;;13.40;74.10;;;;;;5114378;28;20031;-73
2023/05/02 08:02:06;;;;;;;5.75;2.08;;;13.50;74.30;;;;;;5114405;28;20031;-73
2023/05/02 08:04:32;;;;;;;5.80;2.03;;;13.50;75.40;;;;;;5114351;28;20016;-73
2023/05/02 08:06:57;;;;;;;6.55;1.70;;;13.60;74.40;;;;;;5113272;28;20123;-73
2023/05/02 08:09:23;;;;;;;3.95;1.70;;;13.60;73.50;;;;;;5114178;28;20032;-73
2023/05/02 08:11:49;;;;;;;5.88;2.10;;;13.60;73.30;;;;;;5114227;28;20027;-73
2023/05/02 08:14:15;;;;;;;6.18;1.95;;;13.70;73.00;;;;;;5113236;28;20039;-73
2023/05/02 08:16:41;;;;;;;4.70;1.60;;;13.70;72.60;;;;;;5114132;28;20028;-73
2023/05/02 08:19:07;;;;;;;5.93;1.90;;;13.80;72.80;;;;;;5114086;28;20072;-73
2023/05/02 08:21:33;;;;;;;2.65;1.48;;;13.80;72.70;;;;;;5112777;28;20061;-73
2023/05/02 08:23:59;;;;;;;4.70;1.67;;;13.80;71.90;;;;;;5113957;28;20028;-73
2023/05/02 08:26:25;;;;;;;7.50;1.98;;;13.90;71.40;;;;;;5112992;28;20054;-73
2023/05/02 08:28:51;;;;;;;7.88;1.90;;;13.90;71.30;;;;;;5113913;28;20016;-73
2023/05/02 08:31:17;;;;;;;8.45;1.60;;;13.90;70.20;;;;;;5113798;28;20024;-74
2023/05/02 08:33:43;;;;;;;6.03;1.70;;;13.90;69.80;;;;;;5113754;28;20042;-74
2023/05/02 08:36:16;;;;;;;7.18;1.92;;;14.00;68.90;;;;;;5113688;28;20056;-73
2023/05/02 08:38:42;;;;;;;6.60;1.65;;;14.00;69.20;;;;;;5113822;28;20020;-73
2023/05/02 08:41:12;;;;;;;7.68;1.67;;;14.00;69.70;;;;;;5113738;28;20024;-73
2023/05/02 08:43:38;;;;;;;3.17;1.42;;;14.00;69.40;;;;;;5113707;28;20020;-73
2023/05/02 08:46:08;;;;;;;6.25;1.70;;;14.00;69.60;;;;;;5113598;28;20107;-73
2023/05/02 08:48:39;;;;;;;3.85;1.33;;;14.00;69.80;;;;;;5113631;28;20028;-73
2023/05/02 08:51:09;;;;;;;3.85;1.27;;;14.00;69.10;;;;;;5113732;28;20429;-73
2023/05/02 08:53:35;;;;;;;4.30;1.30;;;14.00;69.10;;;;;;5113839;28;20020;-73
2023/05/02 08:56:02;;;;;;;5.32;1.60;;;14.10;69.10;;;;;;5113484;28;20024;-73
2023/05/02 08:58:29;;;;;;;3.13;1.30;;;14.10;68.70;;;;;;5113488;28;20033;-73
2023/05/02 09:00:55;;;;;;;3.22;1.27;;;14.00;67.10;;;;;;5112383;28;20024;-73
2023/05/02 09:03:34;;;;;;;6.43;1.83;;;14.00;66.80;;;;;;5112534;28;20091;-73
2023/05/02 09:06:02;;;;;;;2.67;1.02;;;14.00;67.10;;;;;;5113554;28;20024;-73
2023/05/02 09:08:28;;;;;;;4.90;1.35;;;14.10;67.00;;;;;;5112299;28;20031;-73
2023/05/02 09:10:54;;;;;;;4.28;1.50;;;14.00;66.80;;;;;;5095517;28;20040;-74
2023/05/02 09:13:34;;;;;;;4.63;1.40;;;14.00;66.10;;;;;;5113356;28;20028;-73
2023/05/02 09:16:24;;;;;;;3.70;1.45;;;14.10;66.40;;;;;;5112160;28;20044;-73
2023/05/02 09:18:54;;;;;;;6.43;1.77;;;14.10;66.60;;;;;;5112157;28;20050;-73
2023/05/02 09:21:25;;;;;;;6.13;1.45;;;14.10;66.90;;;;;;5112952;28;20048;-74
2023/05/02 09:23:54;;;;;;;5.10;1.42;;;14.20;67.20;;;;;;5113441;28;20396;-73
2023/05/02 09:26:21;;;;;;;4.03;1.92;;;14.10;67.40;;;;;;5112165;28;20095;-73
2023/05/02 09:28:54;;;;;;;7.68;1.45;;;14.20;67.90;;;;;;5113225;28;20054;-73
2023/05/02 09:31:29;;;;;;;5.95;1.50;;;14.20;66.70;;;;;;5112453;28;20054;-73
2023/05/02 09:33:55;;;;;;;4.88;1.58;;;14.20;66.00;;;;;;5113097;28;20024;-73
2023/05/02 09:36:23;;;;;;;4.47;1.27;;;14.30;66.50;;;;;;5113852;28;20032;-73
2023/05/02 09:38:52;;;;;;;3.92;1.55;;;14.30;66.70;;;;;;5117255;28;20043;-73
2023/05/02 09:41:20;;;;;;;3.40;1.30;;;14.40;67.20;;;;;;5116197;28;20027;-73
2023/05/02 09:43:58;;;;;;;6.32;1.60;;;14.40;66.70;;;;;;5117140;28;20020;-74
2023/05/02 09:46:23;;;;;;;2.53;1.30;;;14.50;66.00;;;;;;5115992;28;20024;-74
2023/05/02 09:48:56;;;;;;;3.85;1.70;;;14.50;65.70;;;;;;5115965;28;20058;-73
2023/05/02 09:51:23;;;;;;;6.55;1.80;;;14.60;64.90;;;;;;5116964;28;20113;-73
2023/05/02 09:53:50;;;;;;;5.90;1.48;;;14.60;64.80;;;;;;5116920;28;20057;-73
2023/05/02 09:56:16;;;;;;;6.57;1.58;;;14.60;64.00;;;;;;5115675;28;20067;-73
2023/05/02 09:58:41;;;;;;;5.05;1.55;;;14.60;64.70;;;;;;5116802;28;20051;-73
2023/05/02 10:01:13;;;;;;;3.15;1.60;;;14.50;64.70;;;;;;5115647;28;20028;-73
2023/05/02 10:03:40;;;;;;;5.75;1.90;;;14.50;64.90;;;;;;5116769;28;20480;-73
2023/05/02 10:06:08;;;;;;;4.88;1.35;;;14.40;63.60;;;;;;5116608;28;20070;-74
2023/05/02 10:08:34;;;;;;;5.25;1.88;;;14.40;62.70;;;;;;5116665;28;20028;-73
2023/05/02 10:11:04;;;;;;;4.93;1.30;;;14.40;62.30;;;;;;5116531;28;20020;-73
2023/05/02 10:13:33;;;;;;;2.88;1.08;;;14.40;62.10;;;;;;5116662;28;20028;-73
2023/05/02 10:16:01;;;;;;;2.97;1.30;;;14.40;62.80;;;;;;5116336;28;20040;-73
2023/05/02 10:19:07;;;;;;;2.65;1.27;;;14.50;63.40;;;;;;5116690;28;20099;-73
2023/05/02 10:21:42;;;;;;;3.83;1.80;;;14.60;62.50;;;;;;5116279;28;20095;-73
2023/05/02 10:24:08;;;;;;;3.13;1.20;;;14.70;62.60;;;;;;5116356;28;20016;-73
2023/05/02 10:26:35;;;;;;;4.60;1.65;;;14.80;63.10;;;;;;5116226;28;20068;-73
2023/05/02 10:29:01;;;;;;;5.03;1.50;;;14.90;62.20;;;;;;5116234;28;20020;-73
2023/05/02 10:31:32;;;;;;;4.32;1.40;;;14.90;61.40;;;;;;5116115;28;20046;-73
2023/05/02 10:34:00;;;;;;;5.10;1.67;;;15.00;60.50;;;;;;5116223;28;20021;-73
2023/05/02 10:36:27;;;;;;;4.15;1.50;;;15.00;60.70;;;;;;5116041;28;20076;-73
2023/05/02 10:38:54;;;;;;;4.93;1.30;;;15.00;60.90;;;;;;5115041;28;20043;-73
2023/05/02 10:41:26;;;;;;;3.38;1.42;;;15.00;59.40;;;;;;5116107;28;20028;-73
2023/05/02 10:43:52;;;;;;;4.00;1.40;;;15.00;59.30;;;;;;5116015;28;20024;-73
2023/05/02 10:46:33;;;;;;;4.38;1.50;;;15.00;58.30;;;;;;5114915;28;20028;-73
2023/05/02 10:49:12;;;;;;;5.28;1.50;;;15.00;59.40;;;;;;5115840;28;20020;-73
2023/05/02 10:51:40;;;;;;;4.55;1.60;;;15.00;59.90;;;;;;5115797;28;20020;-73
2023/05/02 10:54:18;;;;;;;3.60;1.60;;;15.00;59.10;;;;;;5115872;28;20389;-73
2023/05/02 10:59:41;;;;;;;4.45;1.95;;;15.10;60.40;;;;;;5115655;28;20053;-73
2023/05/02 11:02:26;;;;;;;4.25;1.58;;;15.00;59.40;;;;;;5115822;28;20050;-73
2023/05/02 11:05:00;;;;;;;5.15;1.70;;;15.00;59.90;;;;;;5114497;28;20027;-73
2023/05/02 11:07:26;;;;;;;4.47;1.48;;;15.10;59.20;;;;;;5115512;28;20039;-73
2023/05/02 11:09:52;;;;;;;6.43;1.65;;;15.10;59.60;;;;;;5115362;28;20020;-73
2023/05/02 11:12:47;;;;;;;3.50;1.83;;;15.20;59.30;;;;;;5115471;28;20027;-73
2023/05/02 11:15:14;;;;;;;5.60;2.00;;;15.20;58.70;;;;;;5115259;28;20028;-73
2023/05/02 11:18:06;;;;;;;6.28;2.08;;;15.30;59.40;;;;;;5115295;28;20054;-73
2023/05/02 11:20:33;;;;;;;2.47;1.50;;;15.30;59.10;;;;;;5114121;28;20008;-73
2023/05/02 11:23:26;;;;;;;3.30;1.77;;;15.30;59.30;;;;;;5114116;28;20063;-73
2023/05/02 11:25:54;;;;;;;3.55;1.80;;;15.40;58.10;;;;;;5115191;28;20077;-73
2023/05/02 11:28:46;;;;;;;6.75;2.10;;;15.40;58.70;;;;;;5115069;28;20020;-73
2023/05/02 11:31:27;;;;;;;4.07;1.80;;;15.40;56.60;;;;;;5115178;28;20028;-73
2023/05/02 11:34:01;;;;;;;5.47;1.98;;;15.40;57.30;;;;;;5113849;28;20054;-73
2023/05/02 11:36:32;;;;;;;4.32;1.98;;;15.30;56.80;;;;;;5114806;28;20027;-73
2023/05/02 11:38:58;;;;;;;3.55;2.50;;;15.30;56.70;;;;;;5113815;28;20020;-73
2023/05/02 11:41:38;;;;;;;2.63;1.92;;;15.30;57.50;;;;;;5113689;28;20038;-73
2023/05/02 11:44:04;;;;;;;5.60;2.22;;;15.50;56.10;;;;;;5114768;28;20034;-73
2023/05/02 11:46:30;;;;;;;2.63;1.80;;;15.40;55.80;;;;;;5114762;28;20024;-73
2023/05/02 11:48:55;;;;;;;3.50;1.83;;;15.40;56.40;;;;;;5096811;28;20032;-74
2023/05/02 11:51:22;;;;;;;4.30;2.28;;;15.40;55.90;;;;;;5114445;28;20032;-73
2023/05/02 11:53:48;;;;;;;3.67;2.05;;;15.40;56.00;;;;;;5114632;28;20054;-74
2023/05/02 11:56:13;;;;;;;3.47;2.03;;;15.40;56.20;;;;;;5113532;28;20084;-73
2023/05/02 11:58:39;;;;;;;3.10;2.00;;;15.60;55.80;;;;;;5113972;28;20035;-73
2023/05/02 12:01:12;;;;;;;4.47;1.92;;;15.70;54.90;;;;;;5113353;28;20035;-73
2023/05/02 12:03:37;;;;;;;3.80;1.80;;;15.90;54.00;;;;;;5114369;28;20088;-73
2023/05/02 12:06:17;;;;;;;5.50;1.92;;;16.10;55.40;;;;;;5114341;28;20049;-73
2023/05/02 12:08:43;;;;;;;4.03;1.95;;;16.30;54.50;;;;;;5114419;28;20035;-73
2023/05/02 12:11:13;;;;;;;3.70;2.25;;;16.40;53.20;;;;;;5114222;28;20031;-73
2023/05/02 12:13:45;;;;;;;5.10;1.80;;;16.50;52.20;;;;;;5114240;28;20400;-73
2023/05/02 12:16:11;;;;;;;5.53;2.38;;;16.60;51.40;;;;;;5114053;28;20044;-73
2023/05/02 12:18:37;;;;;;;3.72;2.00;;;16.70;52.20;;;;;;5114035;28;20031;-73
2023/05/02 12:21:04;;;;;;;2.50;1.90;;;16.80;51.70;;;;;;5112922;28;20032;-73
2023/05/02 12:23:30;;;;;;;18.58;2.60;;;16.90;51.90;;;;;;5113181;28;20105;-73
2023/05/02 12:25:58;;;;;;;5.50;2.15;;;16.90;50.70;;;;;;5113026;28;20032;-73
2023/05/02 12:28:23;;;;;;;4.82;2.20;;;16.90;48.30;;;;;;5113997;28;20516;-73
2023/05/02 12:30:50;;;;;;;5.15;2.50;;;17.00;48.10;;;;;;5113929;28;20083;-74
2023/05/02 12:33:16;;;;;;;5.20;2.40;;;17.00;48.70;;;;;;5113794;28;20024;-74
2023/05/02 12:35:42;;;;;;;3.38;1.98;;;17.10;49.10;;;;;;5112638;28;20370;-74
2023/05/02 12:38:22;;;;;;;3.75;2.00;;;17.20;48.70;;;;;;5113807;28;20032;-74
2023/05/02 12:40:56;;;;;;;5.22;2.28;;;17.30;48.90;;;;;;5113768;28;20103;-74
2023/05/02 12:43:22;;;;;;;4.53;2.20;;;17.40;50.40;;;;;;5113765;28;20060;-74
2023/05/02 12:45:48;;;;;;;4.65;2.42;;;17.40;48.70;;;;;;5113676;28;20032;-74
2023/05/02 12:48:21;;;;;;;5.85;2.60;;;17.40;47.10;;;;;;5113641;28;20503;-74
2023/05/02 12:50:47;;;;;;;4.15;2.40;;;17.40;46.20;;;;;;5113528;28;20024;-74
2023/05/02 12:53:13;;;;;;;5.82;2.45;;;17.40;46.10;;;;;;5113597;28;20035;-74